Time;durP1;ratioP1;P1;durP2;ratioP2;P2;SDS_P1;SDS_P2;PMS_P1;PMS_P2;Temp;Humidity;BMP_temperature;BMP_pressure;BME280_temperature;BME280_humidity;BME280_pressure;Samples;Min_cycle;Max_cycle;Signal;HPM_P1;HPM_P2
2022/08/21 00:01:52;;;;;;;13.38;9.40;;;;;;;13.33;95.61;101720.19;5033381;28;20025;-73
2022/08/21 00:04:17;;;;;;;12.90;9.23;;;;;;;13.31;95.90;101716.84;5036372;28;20036;-81
2022/08/21 00:06:43;;;;;;;15.95;10.00;;;;;;;13.27;95.97;101707.56;5036284;28;20029;-73
2022/08/21 00:09:08;;;;;;;12.43;8.90;;;;;;;13.27;96.29;101711.00;5036458;28;20026;-73
2022/08/21 00:11:37;;;;;;;13.98;9.80;;;;;;;13.16;96.57;101703.84;5035971;28;20045;-73
2022/08/21 00:14:04;;;;;;;13.77;9.38;;;;;;;13.19;96.11;101708.88;5036202;28;20053;-76
2022/08/21 00:16:29;;;;;;;15.82;9.40;;;;;;;13.16;96.05;101706.44;5036111;28;20037;-73
2022/08/21 00:18:54;;;;;;;12.75;9.82;;;;;;;13.06;96.42;101686.31;5036067;28;20025;-73
2022/08/21 00:21:20;;;;;;;13.55;9.90;;;;;;;13.14;96.48;101710.88;5036114;28;20030;-77
2022/08/21 00:23:45;;;;;;;15.20;10.02;;;;;;;13.12;96.68;101709.31;5036065;28;20021;-75
2022/08/21 00:26:11;;;;;;;14.73;9.85;;;;;;;13.10;96.96;101706.81;5035779;28;20527;-71
2022/08/21 00:28:36;;;;;;;14.60;9.55;;;;;;;13.03;96.59;101696.88;5036009;28;20021;-72
2022/08/21 00:31:03;;;;;;;13.43;9.40;;;;;;;13.05;96.51;101706.22;5035981;28;20072;-71
2022/08/21 00:33:30;;;;;;;16.25;9.57;;;;;;;13.01;96.93;101696.97;5035799;28;20021;-72
2022/08/21 00:35:55;;;;;;;15.55;10.35;;;;;;;12.91;96.75;101685.50;5035794;28;20029;-72
2022/08/21 00:38:21;;;;;;;13.90;9.40;;;;;;;12.97;96.96;101695.47;5035844;28;20129;-78
2022/08/21 00:41:07;;;;;;;14.18;10.25;;;;;;;12.98;97.06;101706.69;5035583;28;20075;-75
2022/08/21 00:43:36;;;;;;;11.43;9.27;;;;;;;12.93;97.37;101696.59;5035590;28;20557;-79
2022/08/21 00:46:04;;;;;;;13.02;8.80;;;;;;;12.87;97.31;101694.34;5035595;28;20029;-81
2022/08/21 00:48:29;;;;;;;15.52;9.63;;;;;;;12.87;97.22;101690.00;5035729;28;20022;-80
2022/08/21 00:50:59;;;;;;;12.63;9.60;;;;;;;12.86;97.23;101696.13;5035634;28;20036;-80
2022/08/21 00:53:27;;;;;;;13.35;9.70;;;;;;;12.83;97.54;101696.31;5035556;28;20030;-81
2022/08/21 00:55:54;;;;;;;14.57;9.93;;;;;;;12.75;97.54;101684.72;5035379;28;20057;-79
2022/08/21 00:58:20;;;;;;;15.55;10.13;;;;;;;12.77;97.96;101685.44;5035493;28;20037;-74
2022/08/21 01:00:48;;;;;;;13.52;9.95;;;;;;;12.74;97.95;101699.44;5035256;28;20024;-79
2022/08/21 01:03:17;;;;;;;15.18;10.38;;;;;;;12.64;97.85;101680.16;5035280;28;20021;-81
2022/08/21 01:05:45;;;;;;;16.05;9.80;;;;;;;12.71;97.63;101697.03;5035667;28;20025;-80
2022/08/21 01:08:11;;;;;;;14.43;10.52;;;;;;;12.58;98.00;101675.31;5017468;28;20063;-78
2022/08/21 01:10:37;;;;;;;15.23;9.82;;;;;;;12.61;98.00;101688.13;5035194;28;20566;-76
2022/08/21 01:13:04;;;;;;;14.43;10.52;;;;;;;12.64;98.51;101704.31;5034368;28;20118;-77
2022/08/21 01:15:35;;;;;;;15.10;10.18;;;;;;;12.61;98.32;101706.25;5034737;28;20545;-81
2022/08/21 01:18:04;;;;;;;14.98;10.35;;;;;;;12.58;98.95;101701.22;5035161;28;20087;-75
2022/08/21 01:20:30;;;;;;;14.27;9.70;;;;;;;12.59;98.59;101698.56;5035050;28;20030;-72
2022/08/21 01:22:55;;;;;;;14.02;10.18;;;;;;;12.46;98.46;101681.22;5034989;28;20026;-77
2022/08/21 01:25:20;;;;;;;15.50;10.52;;;;;;;12.53;98.56;101693.72;5034961;28;20121;-79
2022/08/21 01:27:46;;;;;;;12.82;9.90;;;;;;;12.52;98.81;101689.47;5034672;28;20560;-80
2022/08/21 01:30:23;;;;;;;17.17;10.50;;;;;;;12.47;99.31;101688.06;5034708;28;20040;-73
2022/08/21 01:32:48;;;;;;;15.60;9.35;;;;;;;12.37;99.05;101671.38;5034824;28;20064;-81
2022/08/21 01:35:16;;;;;;;15.82;9.55;;;;;;;12.48;99.29;101692.31;5034719;28;20030;-79
2022/08/21 01:37:44;;;;;;;15.15;9.90;;;;;;;12.40;99.43;101686.75;5034523;28;20431;-75
2022/08/21 01:40:10;;;;;;;15.07;10.10;;;;;;;12.34;99.12;101683.59;5016995;28;20025;-76
2022/08/21 01:42:36;;;;;;;13.70;10.05;;;;;;;12.16;99.40;101652.72;5034474;28;20034;-79
2022/08/21 01:45:03;;;;;;;14.07;10.35;;;;;;;12.33;99.45;101689.69;5034500;28;20036;-75
2022/08/21 01:47:28;;;;;;;14.88;9.20;;;;;;;12.37;99.10;101695.50;5034263;28;20492;-73
2022/08/21 01:49:53;;;;;;;12.55;9.63;;;;;;;12.30;99.45;101689.88;5034269;28;20069;-78
2022/08/21 01:52:19;;;;;;;14.35;10.40;;;;;;;12.33;99.28;101691.44;5034549;28;20209;-74
2022/08/21 01:54:45;;;;;;;13.02;10.20;;;;;;;12.31;99.58;101690.69;5034375;28;20113;-72
2022/08/21 01:57:12;;;;;;;12.32;9.13;;;;;;;12.23;99.53;101685.13;5016489;28;20045;-80
2022/08/21 01:59:37;;;;;;;13.48;9.27;;;;;;;12.26;99.35;101688.34;5034256;28;20101;-72
2022/08/21 02:02:04;;;;;;;13.13;9.10;;;;;;;12.05;99.68;101648.13;5034204;28;20124;-72
2022/08/21 02:04:30;;;;;;;12.50;9.20;;;;;;;12.20;99.84;101680.94;5034158;28;20045;-73
2022/08/21 02:06:55;;;;;;;14.07;8.80;;;;;;;12.21;100.00;101681.78;5034056;28;20458;-76
2022/08/21 02:09:21;;;;;;;12.13;8.57;;;;;;;12.18;99.98;101677.59;5033999;28;20036;-76
2022/08/21 02:11:47;;;;;;;14.10;8.93;;;;;;;12.14;99.97;101673.50;5034031;28;20373;-73
2022/08/21 02:14:14;;;;;;;11.75;8.80;;;;;;;12.11;100.00;101670.28;5033710;28;20037;-73
2022/08/21 02:16:41;;;;;;;11.77;8.45;;;;;;;12.03;99.95;101666.34;5034311;28;20029;-71
2022/08/21 02:19:06;;;;;;;14.70;9.43;;;;;;;11.99;100.00;101658.81;5033726;28;20529;-72
2022/08/21 02:21:32;;;;;;;13.23;8.38;;;;;;;11.98;99.78;101664.91;5033842;28;20121;-74
2022/08/21 02:23:57;;;;;;;15.02;10.15;;;;;;;12.02;99.89;101676.78;5033916;28;20389;-71
2022/08/21 02:26:23;;;;;;;12.90;9.32;;;;;;;12.01;100.00;101667.34;5032833;28;20100;-76
2022/08/21 02:28:48;;;;;;;12.60;9.38;;;;;;;11.92;100.00;101658.34;5033581;28;20029;-72
2022/08/21 02:31:14;;;;;;;12.48;8.77;;;;;;;11.95;99.91;101668.53;5033430;28;20036;-77
2022/08/21 02:33:39;;;;;;;13.20;8.90;;;;;;;11.83;99.99;101651.09;5033863;28;20028;-72
2022/08/21 02:36:06;;;;;;;14.77;9.52;;;;;;;11.88;99.73;101663.75;5033865;28;20097;-74
2022/08/21 02:38:37;;;;;;;14.63;8.95;;;;;;;11.80;100.00;101648.69;5033616;28;20036;-72
2022/08/21 02:41:03;;;;;;;;;;;;;;;11.90;98.91;101662.78;5033942;28;20033;-82
2022/08/21 02:43:41;;;;;;;12.18;7.90;;;;;;;11.72;99.67;101635.28;5033427;28;19913;-79
2022/08/21 02:46:08;;;;;;;11.70;7.97;;;;;;;11.83;100.00;101652.84;5033488;28;20073;-79
2022/08/21 02:48:34;;;;;;;10.85;8.43;;;;;;;11.78;100.00;101659.06;5015676;28;20029;-81
2022/08/21 02:51:04;;;;;;;12.90;7.95;;;;;;;11.79;100.00;101662.47;5033350;28;20030;-74
2022/08/21 02:53:31;;;;;;;15.32;9.18;;;;;;;11.72;100.00;101650.81;5033940;28;20021;-73
2022/08/21 02:56:00;;;;;;;13.90;8.60;;;;;;;11.61;100.00;101640.22;5038680;28;20055;-72
2022/08/21 02:58:30;;;;;;;12.80;8.63;;;;;;;11.63;100.00;101648.72;5016576;28;20017;-82
2022/08/21 03:00:55;;;;;;;12.05;8.18;;;;;;;11.63;100.00;101654.72;5032905;28;20040;-75
2022/08/21 03:03:22;;;;;;;12.35;8.00;;;;;;;11.63;100.00;101657.31;5033041;28;20060;-74
2022/08/21 03:05:50;;;;;;;12.35;8.60;;;;;;;11.55;100.00;101656.06;5033252;28;20354;-73
2022/08/21 03:08:17;;;;;;;12.38;8.95;;;;;;;11.63;100.00;101662.50;5033036;28;20427;-72
2022/08/21 03:10:47;;;;;;;10.27;7.60;;;;;;;11.58;100.00;101663.63;5032080;28;20028;-77
2022/08/21 03:13:13;;;;;;;13.15;8.90;;;;;;;11.57;100.00;101656.81;5032978;28;20029;-75
2022/08/21 03:15:39;;;;;;;11.63;8.50;;;;;;;11.55;100.00;101656.06;5032950;28;20367;-72
2022/08/21 03:18:06;;;;;;;13.23;8.27;;;;;;;11.39;100.00;101630.16;5033110;28;20021;-79
2022/08/21 03:20:33;;;;;;;12.00;8.65;;;;;;;11.40;100.00;101644.75;5032884;28;20040;-81
2022/08/21 03:22:59;;;;;;;10.48;8.35;;;;;;;11.50;100.00;101653.69;5015383;28;20481;-81
2022/08/21 03:25:26;;;;;;;13.55;9.35;;;;;;;11.43;100.00;101642.03;5032869;28;20496;-72
2022/08/21 03:27:51;;;;;;;14.57;9.45;;;;;;;11.43;100.00;101645.44;5032575;28;20033;-71
2022/08/21 03:30:19;;;;;;;13.80;8.63;;;;;;;11.35;100.00;101639.00;5032637;28;20028;-72
2022/08/21 03:32:46;;;;;;;12.38;9.10;;;;;;;11.37;100.00;101639.75;5032731;28;20029;-77
2022/08/21 03:35:12;;;;;;;14.15;9.70;;;;;;;11.36;100.00;101644.09;5033248;28;20021;-82
2022/08/21 03:37:41;;;;;;;12.88;9.57;;;;;;;11.31;100.00;101642.69;5014703;28;20030;-79
2022/08/21 03:40:13;;;;;;;12.73;8.27;;;;;;;11.28;100.00;101638.50;5032876;28;20075;-77
2022/08/21 03:42:38;;;;;;;15.45;9.70;;;;;;;11.30;100.00;101641.00;5032469;28;20487;-80
2022/08/21 03:45:05;;;;;;;17.92;9.75;;;;;;;11.27;100.00;101643.75;5032482;28;20112;-73
2022/08/21 03:47:31;;;;;;;15.63;10.48;;;;;;;11.27;100.00;101646.34;5032419;28;20477;-72
2022/08/21 03:49:56;;;;;;;16.00;11.35;;;;;;;11.23;100.00;101643.09;5032658;28;20032;-75
2022/08/21 03:52:22;;;;;;;16.65;11.60;;;;;;;11.15;100.00;101630.56;5032550;28;20112;-78
2022/08/21 03:54:47;;;;;;;14.85;10.90;;;;;;;11.19;100.00;101641.56;5032685;28;20456;-73
2022/08/21 03:57:13;;;;;;;15.55;11.82;;;;;;;11.03;100.00;101610.53;5032380;28;20026;-72
2022/08/21 03:59:39;;;;;;;17.45;12.02;;;;;;;11.13;100.00;101634.16;5032455;28;20075;-73
2022/08/21 04:02:06;;;;;;;18.23;11.63;;;;;;;11.13;100.00;101642.75;5032364;28;20160;-73
2022/08/21 04:04:32;;;;;;;19.20;12.68;;;;;;;11.11;100.00;101633.38;5032551;28;20026;-72
2022/08/21 04:06:58;;;;;;;16.75;12.68;;;;;;;11.12;100.00;101638.50;5032394;28;20104;-73
2022/08/21 04:09:24;;;;;;;18.77;13.75;;;;;;;11.10;100.00;101636.88;5032498;28;20429;-72
2022/08/21 04:11:49;;;;;;;20.50;13.90;;;;;;;11.07;100.00;101637.88;5032180;28;20080;-73
2022/08/21 04:14:16;;;;;;;20.50;13.90;;;;;;;10.94;100.00;101621.34;5032053;28;20445;-73
2022/08/21 04:16:43;;;;;;;19.40;14.65;;;;;;;11.03;100.00;101644.13;5032471;28;20036;-72
2022/08/21 04:19:09;;;;;;;18.45;13.93;;;;;;;10.90;100.00;101628.41;5032513;28;20026;-72
2022/08/21 04:21:37;;;;;;;17.88;13.98;;;;;;;11.03;100.00;101651.88;5032201;28;20030;-73
2022/08/21 04:24:04;;;;;;;18.30;14.13;;;;;;;10.89;100.00;101631.06;5032252;28;20033;-73
2022/08/21 04:26:30;;;;;;;22.00;15.38;;;;;;;10.93;100.00;101637.78;5032053;28;20033;-72
2022/08/21 04:28:57;;;;;;;20.50;15.63;;;;;;;11.01;100.00;101656.31;5032342;28;20022;-72
2022/08/21 04:31:23;;;;;;;21.95;15.88;;;;;;;11.03;100.00;101653.63;5032302;28;20338;-72
2022/08/21 04:33:50;;;;;;;23.73;15.55;;;;;;;10.90;100.00;101635.31;5032225;28;20424;-72
2022/08/21 04:36:15;;;;;;;20.40;15.40;;;;;;;10.96;100.00;101644.53;5032095;28;20025;-72
2022/08/21 04:38:41;;;;;;;22.92;17.35;;;;;;;10.99;100.00;101652.09;5032181;28;20040;-73
2022/08/21 04:41:06;;;;;;;23.92;17.00;;;;;;;10.89;100.00;101639.66;5032078;28;20464;-72
2022/08/21 04:43:32;;;;;;;20.88;16.05;;;;;;;11.04;100.00;101656.13;5031981;28;20025;-72
2022/08/21 04:45:57;;;;;;;23.98;16.63;;;;;;;11.02;100.00;101655.38;5032048;28;20103;-72
2022/08/21 04:48:23;;;;;;;24.23;16.98;;;;;;;11.11;100.00;101662.66;5032322;28;20396;-72
2022/08/21 04:50:57;;;;;;;27.80;18.13;;;;;;;11.15;100.00;101660.75;5035726;28;20017;-72
2022/08/21 04:53:33;;;;;;;24.35;17.13;;;;;;;11.20;100.00;101661.31;5035601;28;20022;-72
2022/08/21 04:56:04;;;;;;;21.30;16.30;;;;;;;11.19;100.00;101652.75;5035542;28;20096;-72
2022/08/21 04:58:32;;;;;;;24.17;16.70;;;;;;;11.29;100.00;101660.84;5035527;28;20084;-72
2022/08/21 05:01:01;;;;;;;25.85;16.65;;;;;;;11.20;100.00;101645.81;5035467;28;20449;-72
2022/08/21 05:03:31;;;;;;;22.58;15.43;;;;;;;11.37;100.00;101665.63;5035528;28;20049;-75
2022/08/21 05:05:57;;;;;;;22.10;16.80;;;;;;;11.29;100.00;101640.16;5035205;28;20037;-79
2022/08/21 05:08:27;;;;;;;24.88;17.25;;;;;;;11.43;100.00;101653.22;5035180;28;20523;-74
2022/08/21 05:10:53;;;;;;;22.20;16.15;;;;;;;11.57;100.00;101672.31;5035149;28;20022;-73
2022/08/21 05:13:18;;;;;;;26.25;16.77;;;;;;;11.65;100.00;101672.75;5035221;28;20033;-74
2022/08/21 05:15:44;;;;;;;20.77;16.08;;;;;;;11.81;100.00;101658.09;5017132;28;20096;-82
2022/08/21 05:18:10;;;;;;;22.08;16.60;;;;;;;12.03;100.00;101674.09;5035159;28;20091;-73
2022/08/21 05:20:36;;;;;;;22.70;17.00;;;;;;;12.24;100.00;101669.47;5035357;28;20033;-75
2022/08/21 05:23:07;;;;;;;24.35;17.33;;;;;;;12.29;100.00;101656.25;5035633;28;20029;-79
2022/08/21 05:25:33;;;;;;;23.95;15.25;;;;;;;12.44;100.00;101650.22;5035342;28;20504;-76
2022/08/21 05:27:58;;;;;;;20.45;15.10;;;;;;;12.71;100.00;101678.06;5035072;28;20037;-90
2022/08/21 05:30:23;;;;;;;20.35;15.23;;;;;;;12.74;100.00;101678.69;5034741;28;20029;-90
2022/08/21 05:32:49;;;;;;;21.70;15.23;;;;;;;12.80;100.00;101683.53;5034863;28;20033;-81
2022/08/21 05:35:14;;;;;;;20.90;13.63;;;;;;;13.01;100.00;101678.84;5016931;28;20477;-86
2022/08/21 05:37:39;;;;;;;19.67;13.38;;;;;;;13.16;100.00;101667.53;5034979;28;20152;-81
2022/08/21 05:40:07;;;;;;;19.48;13.23;;;;;;;13.36;100.00;101691.44;5034662;28;20434;-91
2022/08/21 05:42:32;;;;;;;23.20;14.35;;;;;;;13.29;100.00;101682.41;5034782;28;20026;-75
2022/08/21 05:44:57;;;;;;;22.27;13.13;;;;;;;13.42;99.60;101683.31;5034548;28;20087;-88
2022/08/21 05:47:23;;;;;;;20.95;12.38;;;;;;;13.56;99.55;101679.84;5034420;28;20026;-80
2022/08/21 05:49:48;;;;;;;18.00;11.98;;;;;;;13.64;99.05;101665.47;5034819;28;20048;-90
2022/08/21 05:52:19;;;;;;;16.65;11.23;;;;;;;13.93;97.71;101674.03;5035044;28;20484;-76
2022/08/21 05:54:44;;;;;;;17.05;11.68;;;;;;;14.95;93.10;101684.72;5034667;28;20074;-76
2022/08/21 05:57:09;;;;;;;17.58;11.18;;;;;;;16.56;86.17;101682.75;5034829;28;20108;-74
2022/08/21 05:59:35;;;;;;;17.38;9.27;;;;;;;18.10;78.39;101669.09;5034306;28;20470;-80
2022/08/21 06:02:02;;;;;;;11.93;8.27;;;;;;;19.35;71.52;101666.41;5034527;28;20026;-75
2022/08/21 06:04:27;;;;;;;12.85;7.65;;;;;;;20.45;66.86;101674.97;5034198;28;20046;-75
2022/08/21 06:06:52;;;;;;;12.65;6.80;;;;;;;21.04;63.55;101668.63;5015284;28;20068;-70
2022/08/21 06:09:18;;;;;;;10.88;6.50;;;;;;;21.73;60.49;101679.50;5034978;28;20028;-74
2022/08/21 06:11:43;;;;;;;11.95;5.63;;;;;;;22.27;59.14;101682.16;5016211;28;20034;-75
2022/08/21 06:14:09;;;;;;;12.93;6.40;;;;;;;22.64;57.36;101674.06;5033814;28;20159;-73
2022/08/21 06:16:34;;;;;;;12.02;6.22;;;;;;;23.05;55.76;101684.84;5033628;28;20592;-72
2022/08/21 06:18:59;;;;;;;10.40;5.50;;;;;;;23.51;54.25;101677.47;5033790;28;20068;-72
2022/08/21 06:21:24;;;;;;;11.45;6.05;;;;;;;23.86;52.92;101673.75;5033963;28;20108;-74
2022/08/21 06:23:50;;;;;;;13.75;6.15;;;;;;;24.30;51.63;101679.56;5034374;28;20025;-84
2022/08/21 06:26:16;;;;;;;11.15;5.93;;;;;;;24.58;51.47;101680.91;5033963;28;20039;-74
2022/08/21 06:28:42;;;;;;;12.27;5.70;;;;;;;24.70;49.94;101681.38;5034104;28;20040;-74
2022/08/21 06:31:13;;;;;;;9.80;4.80;;;;;;;25.02;49.87;101680.47;5033456;28;20022;-72
2022/08/21 06:33:39;;;;;;;15.10;5.68;;;;;;;25.25;48.08;101674.44;5033530;28;20505;-73
2022/08/21 06:36:04;;;;;;;12.80;6.00;;;;;;;24.97;47.69;101681.94;5033644;28;20025;-74
2022/08/21 06:38:30;;;;;;;10.20;5.30;;;;;;;25.06;48.46;101684.41;5034190;28;20029;-87
2022/08/21 06:40:55;;;;;;;10.38;5.15;;;;;;;25.48;48.15;101682.44;5033537;28;20109;-85
2022/08/21 06:43:20;;;;;;;12.23;5.05;;;;;;;25.73;47.59;101660.97;5033721;28;20121;-74
2022/08/21 06:45:46;;;;;;;12.57;5.40;;;;;;;25.98;46.51;101690.75;5033495;28;20030;-81
2022/08/21 06:48:11;;;;;;;11.27;5.20;;;;;;;26.03;45.90;101684.91;5033317;28;20033;-84
2022/08/21 06:50:36;;;;;;;7.47;4.53;;;;;;;26.21;45.44;101680.13;5033284;28;20032;-74
2022/08/21 06:53:11;;;;;;;11.95;5.53;;;;;;;26.34;46.40;101681.34;5033344;28;20038;-83
2022/08/21 06:55:38;;;;;;;12.05;4.72;;;;;;;26.44;44.94;101671.34;5033376;28;20029;-75
2022/08/21 06:58:04;;;;;;;9.05;4.60;;;;;;;26.38;45.52;101672.91;5033173;28;20527;-75
2022/08/21 07:00:30;;;;;;;12.15;4.53;;;;;;;26.29;45.65;101668.66;5033064;28;20067;-74
2022/08/21 07:02:56;;;;;;;11.38;4.95;;;;;;;26.40;45.36;101686.78;5033009;28;20076;-74
2022/08/21 07:05:24;;;;;;;14.13;5.97;;;;;;;26.09;46.09;101676.28;5033100;28;20056;-74
2022/08/21 07:07:50;;;;;;;11.95;4.88;;;;;;;26.10;46.50;101672.63;5032937;28;20473;-73
2022/08/21 07:10:15;;;;;;;11.90;4.65;;;;;;;26.36;45.77;101677.53;5033204;28;20056;-73
2022/08/21 07:12:41;;;;;;;12.77;5.20;;;;;;;26.76;44.83;101676.34;5032215;28;20021;-75
2022/08/21 07:15:06;;;;;;;11.25;4.35;;;;;;;26.90;44.38;101661.41;5032808;28;20493;-74
2022/08/21 07:17:32;;;;;;;13.25;5.40;;;;;;;26.41;45.32;101677.84;5031696;28;20064;-72
2022/08/21 07:19:57;;;;;;;13.82;4.55;;;;;;;25.01;48.60;101677.97;5033327;28;20021;-72
2022/08/21 07:22:24;;;;;;;13.23;4.95;;;;;;;23.37;52.60;101673.59;5033223;28;20027;-73
2022/08/21 07:24:49;;;;;;;12.20;4.75;;;;;;;22.36;56.64;101668.09;5032708;28;20021;-76
2022/08/21 07:27:15;;;;;;;10.27;4.00;;;;;;;21.67;59.27;101658.25;5032424;28;20036;-74
2022/08/21 07:29:40;;;;;;;14.95;5.45;;;;;;;21.34;61.08;101665.78;5014530;28;20044;-73
2022/08/21 07:32:05;;;;;;;12.85;5.07;;;;;;;20.68;62.79;101647.47;5032451;28;20528;-74
2022/08/21 07:34:31;;;;;;;12.57;6.07;;;;;;;20.34;64.61;101673.31;5032560;28;20113;-74
2022/08/21 07:36:57;;;;;;;16.10;6.07;;;;;;;20.04;66.71;101679.53;5032841;28;20083;-75
2022/08/21 07:39:23;;;;;;;11.32;5.30;;;;;;;19.93;68.01;101677.88;5032641;28;20108;-75
2022/08/21 07:41:48;;;;;;;14.10;6.18;;;;;;;19.80;69.20;101684.34;5014488;28;20141;-74
2022/08/21 07:44:13;;;;;;;14.32;6.03;;;;;;;19.74;70.20;101676.03;5032466;28;20029;-86
2022/08/21 07:46:39;;;;;;;16.83;6.05;;;;;;;19.67;69.58;101674.94;5032584;28;20029;-86
2022/08/21 07:49:04;;;;;;;14.30;6.55;;;;;;;19.45;70.88;101664.63;5032409;28;20028;-85
2022/08/21 07:51:30;;;;;;;11.65;4.97;;;;;;;19.63;70.56;101673.53;5032451;28;20033;-85
2022/08/21 07:53:57;;;;;;;17.20;6.63;;;;;;;19.56;70.93;101682.91;5032536;28;20053;-71
2022/08/21 07:56:23;;;;;;;14.63;6.65;;;;;;;19.34;71.25;101654.28;5032323;28;20051;-75
2022/08/21 07:58:48;;;;;;;17.75;6.55;;;;;;;19.38;72.14;101655.69;5032358;28;20033;-83
2022/08/21 08:01:14;;;;;;;15.43;6.80;;;;;;;19.60;71.85;101679.06;5032569;28;20084;-75
2022/08/21 08:03:40;;;;;;;12.85;5.95;;;;;;;19.62;71.36;101671.88;5032263;28;20087;-73
2022/08/21 08:06:08;;;;;;;16.33;6.13;;;;;;;19.69;71.78;101675.63;5032341;28;20026;-72
2022/08/21 08:08:33;;;;;;;14.27;6.70;;;;;;;19.77;71.25;101675.78;5032045;28;20393;-77
2022/08/21 08:11:00;;;;;;;15.77;6.68;;;;;;;19.67;71.39;101647.91;5032196;28;20167;-72
2022/08/21 08:13:25;;;;;;;18.52;7.00;;;;;;;19.83;71.75;101671.78;5032078;28;20029;-75
2022/08/21 08:15:51;;;;;;;16.58;6.40;;;;;;;19.83;71.30;101661.31;5032299;28;20384;-73
2022/08/21 08:18:16;;;;;;;17.52;7.00;;;;;;;19.83;72.40;101660.47;5032043;28;20033;-72
2022/08/21 08:20:42;;;;;;;13.68;6.45;;;;;;;20.00;72.05;101678.16;5032283;28;20025;-72
2022/08/21 08:23:11;;;;;;;15.48;5.65;;;;;;;20.01;71.90;101670.16;5033605;28;20054;-74
2022/08/21 08:25:36;;;;;;;16.00;6.03;;;;;;;19.96;72.25;101651.41;5036093;28;20045;-72
2022/08/21 08:28:02;;;;;;;15.38;6.93;;;;;;;19.93;72.32;101658.69;5035877;28;20042;-74
2022/08/21 08:30:27;;;;;;;14.60;6.18;;;;;;;20.06;71.17;101667.13;5035766;28;20065;-74
2022/08/21 08:32:53;;;;;;;19.15;7.50;;;;;;;20.05;72.12;101665.44;5035793;28;20022;-75
2022/08/21 08:35:18;;;;;;;15.40;6.63;;;;;;;20.16;72.03;101664.50;5035992;28;20022;-74
2022/08/21 08:37:45;;;;;;;17.00;7.18;;;;;;;19.97;71.65;101645.19;5035601;28;20057;-74
2022/08/21 08:40:20;;;;;;;16.77;6.35;;;;;;;20.08;73.46;101651.25;5035669;28;20036;-71
2022/08/21 08:42:47;;;;;;;12.88;6.70;;;;;;;20.02;72.10;101639.50;5035757;28;20108;-74
2022/08/21 08:45:17;;;;;;;12.10;6.07;;;;;;;20.17;72.66;101647.81;5035726;28;20017;-78
2022/08/21 08:47:57;;;;;;;19.65;7.85;;;;;;;20.15;72.32;101639.22;5035400;28;20392;-74
2022/08/21 08:50:46;;;;;;;15.35;6.03;;;;;;;20.28;71.17;101637.16;5035426;28;20017;-73
2022/08/21 08:53:18;;;;;;;15.32;6.07;;;;;;;20.55;71.69;101658.28;5035166;28;20022;-79
2022/08/21 08:55:45;;;;;;;15.88;5.65;;;;;;;20.70;70.93;101650.78;5035537;28;20024;-74
2022/08/21 08:58:23;;;;;;;15.48;6.15;;;;;;;20.80;70.24;101653.38;5035383;28;20424;-73
2022/08/21 09:00:50;;;;;;;13.60;6.30;;;;;;;20.90;70.32;101648.91;5035351;28;20024;-75
2022/08/21 09:03:16;;;;;;;12.50;5.32;;;;;;;21.00;69.11;101646.25;5035174;28;20021;-76
2022/08/21 09:05:49;;;;;;;13.98;4.80;;;;;;;21.08;67.87;101633.22;5035138;28;20427;-79
2022/08/21 09:08:36;;;;;;;13.63;4.78;;;;;;;21.27;68.13;101637.59;5035017;28;20039;-75
2022/08/21 09:11:22;;;;;;;14.20;5.10;;;;;;;21.19;67.49;101628.59;5034957;28;20091;-75
2022/08/21 09:14:25;;;;;;;12.55;3.40;;;;;;;21.34;67.29;101636.03;5034936;28;20119;-74
2022/08/21 09:17:04;;;;;;;10.98;4.38;;;;;;;21.31;67.04;101629.25;5035239;28;20021;-73
2022/08/21 09:19:38;;;;;;;10.07;4.20;;;;;;;21.38;65.70;101624.25;5034694;28;20450;-75
2022/08/21 09:22:46;;;;;;;13.18;4.65;;;;;;;21.45;65.59;101634.03;5034907;28;20025;-74
2022/08/21 09:25:23;;;;;;;13.63;4.07;;;;;;;21.55;65.83;101625.25;4954487;28;20057;-75
2022/08/21 09:27:50;;;;;;;16.58;4.10;;;;;;;21.59;65.22;101616.91;4954679;29;20520;-76
2022/08/21 09:30:16;;;;;;;13.98;4.63;;;;;;;21.58;64.42;101610.00;4940808;29;20097;-71
2022/08/21 09:32:42;;;;;;;11.32;4.07;;;;;;;21.75;65.61;101618.88;4955243;29;20031;-72
2022/08/21 09:35:10;;;;;;;12.35;3.30;;;;;;;21.85;62.32;101624.06;4953580;28;20094;-72
2022/08/21 09:37:48;;;;;;;12.82;4.35;;;;;;;21.94;64.00;101624.00;4954212;29;20031;-80
2022/08/21 09:40:30;;;;;;;11.70;4.05;;;;;;;22.21;63.49;101625.69;4954076;28;20027;-73
2022/08/21 09:43:02;;;;;;;9.50;3.20;;;;;;;22.32;60.49;101637.81;4954301;29;20119;-73
2022/08/21 09:45:28;;;;;;;10.68;2.90;;;;;;;22.40;59.78;101619.41;4954313;29;20054;-73
2022/08/21 09:47:54;;;;;;;10.40;3.00;;;;;;;22.57;60.54;101634.34;4953858;29;20039;-75
2022/08/21 09:50:27;;;;;;;13.02;3.25;;;;;;;22.60;58.54;101634.03;4954051;29;20102;-73
2022/08/21 09:52:55;;;;;;;8.00;2.65;;;;;;;22.69;59.36;101634.91;4954271;29;20341;-76
2022/08/21 09:58:17;;;;;;;10.25;3.35;;;;;;;22.78;59.56;101633.97;4954161;29;20042;-74
2022/08/21 10:00:42;;;;;;;12.52;3.53;;;;;;;22.75;59.14;101626.38;4972422;28;20041;-72
2022/08/21 10:03:12;;;;;;;11.50;2.95;;;;;;;22.71;57.52;101625.03;5034151;28;20087;-74
2022/08/21 10:05:39;;;;;;;10.10;3.40;;;;;;;22.75;56.02;101620.31;5033936;28;20068;-79
2022/08/21 10:08:05;;;;;;;11.70;3.22;;;;;;;22.83;58.24;101622.97;5034063;28;20029;-73
2022/08/21 10:10:36;;;;;;;8.93;2.70;;;;;;;23.00;56.62;101635.25;5034041;28;20476;-81
2022/08/21 10:13:04;;;;;;;8.50;2.95;;;;;;;23.10;55.60;101630.69;5034007;28;20029;-81
2022/08/21 10:15:55;;;;;;;9.85;3.65;;;;;;;23.30;55.93;101619.88;5032480;28;20041;-70
2022/08/21 10:18:29;;;;;;;11.68;3.22;;;;;;;23.57;55.19;101627.53;5034844;28;20047;-74
2022/08/21 10:21:19;;;;;;;10.43;4.00;;;;;;;23.73;55.40;101626.78;5033607;28;20061;-76
2022/08/21 10:24:00;;;;;;;12.73;4.28;;;;;;;23.79;54.01;101638.47;5033596;28;20100;-82
2022/08/21 10:26:50;;;;;;;9.40;2.85;;;;;;;23.71;55.20;101645.41;5033746;28;20026;-81
2022/08/21 10:29:36;;;;;;;10.48;3.38;;;;;;;23.58;54.05;101629.19;5033408;28;20038;-73
2022/08/21 10:32:38;;;;;;;10.15;3.28;;;;;;;23.52;53.59;101632.47;5033782;28;20400;-75
2022/08/21 10:35:17;;;;;;;9.23;3.97;;;;;;;23.30;54.12;101630.41;5033451;28;20458;-73
2022/08/21 10:37:51;;;;;;;9.38;3.25;;;;;;;23.23;53.10;101626.78;5033489;28;20405;-74
2022/08/21 10:40:34;;;;;;;10.25;4.13;;;;;;;23.18;54.31;101619.34;5033377;28;20022;-76
2022/08/21 10:43:32;;;;;;;8.70;3.10;;;;;;;23.35;55.06;101620.25;5033660;28;20037;-80
2022/08/21 10:46:13;;;;;;;11.68;4.15;;;;;;;23.40;53.46;101620.56;5019639;28;20038;-74
2022/08/21 10:48:56;;;;;;;9.77;3.92;;;;;;;23.50;55.15;101630.97;5033153;28;20029;-76
2022/08/21 10:52:05;;;;;;;10.27;4.15;;;;;;;23.21;53.44;101599.78;5032200;28;20032;-78
2022/08/21 10:54:52;;;;;;;8.93;3.30;;;;;;;23.12;55.35;101631.38;4934102;29;20502;-75
2022/08/21 10:57:37;;;;;;;7.25;3.50;;;;;;;22.99;55.45;101619.59;4933674;29;20079;-75
2022/08/21 11:00:13;;;;;;;10.65;3.67;;;;;;;22.93;53.88;101621.09;4933511;29;20043;-76
2022/08/21 11:02:46;;;;;;;8.60;3.15;;;;;;;22.94;54.21;101614.84;4933905;29;20043;-76
2022/08/21 11:05:19;;;;;;;11.38;3.13;;;;;;;23.04;53.68;101615.53;4933682;29;20055;-77
2022/08/21 11:07:51;;;;;;;8.77;2.70;;;;;;;23.03;53.88;101615.69;4933572;29;20079;-76
2022/08/21 11:10:29;;;;;;;8.57;2.55;;;;;;;22.85;52.84;101602.59;4933804;29;20035;-75
2022/08/21 11:13:00;;;;;;;13.43;2.53;;;;;;;22.94;52.21;101611.38;4933651;29;20103;-76
2022/08/21 11:15:32;;;;;;;9.00;3.28;;;;;;;23.08;54.28;101610.75;4933555;29;20179;-78
2022/08/21 11:18:09;;;;;;;10.13;3.17;;;;;;;23.23;53.95;101619.72;4933709;29;20051;-75
2022/08/21 11:20:46;;;;;;;16.13;3.60;;;;;;;23.39;52.96;101613.66;4933435;29;20636;-76
2022/08/21 11:23:22;;;;;;;9.15;3.03;;;;;;;23.37;52.08;101615.63;4933585;29;20039;-76
2022/08/21 11:25:54;;;;;;;8.35;3.13;;;;;;;23.44;52.46;101617.47;4933318;29;20031;-79